Página principal
METAR-TAF:

METAR-TAF

Aeroportos :

Trat, Tailândia

latitude: 12-16-28N, longitude: 102-19-08E, altura: 32 m

Observação actual do tempo

O boletim foi feito há 17 minutos, às 06:00 UTC
Vento 8 kt de sudoeste
Temperatura 32°C
Humidade 63%
Pressão 1013 hPa
Visibilidade: 6000 m
Nuvens dispersasa uma altura de 2000 ft

METAR: VTBO 230600Z 23008KT 6000 SCT020 32/24 Q1013

Hora: 13:17 (06:17 UTC)

Previsão

O boletim foi feito há 1 hora e 17 minutos, às 05:00 UTC
Previsão válida de 23 às 06 UTC a 24 às 06 UTC
Vento 8 kt de sudoeste
Visibilidade: 6000 m
Poucas nuvensa uma altura de 2000 ft
Tornando-se
de 23 às 16 UTC a 23 às 18 UTC
Vento kt de norte
Visibilidade: 2000 m
neblina
Tornando-se
de 24 às 02 UTC a 24 às 04 UTC
Vento 8 kt de sudoeste
Visibilidade: 6000 m

TAF: VTBO 230500Z 2306/2406 22008KT 6000 FEW020 BECMG 2316/2318 00000KT 2000 BR BECMG 2402/2404 22008KT 6000 NSW

Observações e previsões do tempo de mais de 4000 aeroportos (mensagens METAR e TAF).

As estações disponíveis são os pontos amarelos e vermelhos sobre o mapa.

Mova o rato sobre o mapa para ver o nome da estação.

Depois clique no ponto para visualizar as observações e previsões meteorológicas.

Para alterar o mapa : clique nos botões verdes com uma cruz preta para aumentar o zoom; no botão verde com uma pitada de zoom; ou nas setas verdes para mapas adjacentes.


METAR-TAF: